sensor_id;sensor_type;location;lat;lon;timestamp;P1;durP1;ratioP1;P2;durP2;ratioP2
11471;SDS011;47430;50.808;4.388;2022-11-15T00:00:46;28.15;;;15.52;;
11471;SDS011;47430;50.808;4.388;2022-11-15T00:03:16;28.63;;;15.27;;
11471;SDS011;47430;50.808;4.388;2022-11-15T00:05:42;27.60;;;16.17;;
11471;SDS011;47430;50.808;4.388;2022-11-15T00:08:08;27.10;;;15.93;;
11471;SDS011;47430;50.808;4.388;2022-11-15T00:10:34;27.65;;;14.98;;
11471;SDS011;47430;50.808;4.388;2022-11-15T00:13:03;27.40;;;15.70;;
11471;SDS011;47430;50.808;4.388;2022-11-15T00:15:36;27.40;;;15.05;;
11471;SDS011;47430;50.808;4.388;2022-11-15T00:18:03;26.20;;;16.35;;
11471;SDS011;47430;50.808;4.388;2022-11-15T00:20:30;32.50;;;16.80;;
11471;SDS011;47430;50.808;4.388;2022-11-15T00:22:56;27.73;;;15.82;;
11471;SDS011;47430;50.808;4.388;2022-11-15T00:25:24;31.45;;;16.80;;
11471;SDS011;47430;50.808;4.388;2022-11-15T00:27:54;29.17;;;16.50;;
11471;SDS011;47430;50.808;4.388;2022-11-15T00:30:20;30.30;;;17.02;;
11471;SDS011;47430;50.808;4.388;2022-11-15T00:32:46;30.67;;;17.90;;
11471;SDS011;47430;50.808;4.388;2022-11-15T00:35:12;30.85;;;17.33;;
11471;SDS011;47430;50.808;4.388;2022-11-15T00:37:39;32.15;;;17.67;;
11471;SDS011;47430;50.808;4.388;2022-11-15T00:40:05;34.40;;;18.30;;
11471;SDS011;47430;50.808;4.388;2022-11-15T00:42:32;31.73;;;17.23;;
11471;SDS011;47430;50.808;4.388;2022-11-15T00:44:58;26.50;;;16.80;;
11471;SDS011;47430;50.808;4.388;2022-11-15T00:47:24;31.70;;;17.65;;
11471;SDS011;47430;50.808;4.388;2022-11-15T00:49:50;32.60;;;17.50;;
11471;SDS011;47430;50.808;4.388;2022-11-15T00:52:16;31.67;;;17.17;;
11471;SDS011;47430;50.808;4.388;2022-11-15T00:54:43;31.08;;;17.90;;
11471;SDS011;47430;50.808;4.388;2022-11-15T00:57:12;34.35;;;18.23;;
11471;SDS011;47430;50.808;4.388;2022-11-15T00:59:38;35.50;;;18.42;;
11471;SDS011;47430;50.808;4.388;2022-11-15T01:02:04;35.00;;;19.77;;
11471;SDS011;47430;50.808;4.388;2022-11-15T01:04:30;35.35;;;19.15;;
11471;SDS011;47430;50.808;4.388;2022-11-15T01:06:57;39.28;;;21.23;;
11471;SDS011;47430;50.808;4.388;2022-11-15T01:09:24;38.67;;;21.30;;
11471;SDS011;47430;50.808;4.388;2022-11-15T01:11:50;38.35;;;20.98;;
11471;SDS011;47430;50.808;4.388;2022-11-15T01:14:16;35.53;;;19.67;;
11471;SDS011;47430;50.808;4.388;2022-11-15T01:16:42;35.47;;;20.10;;
11471;SDS011;47430;50.808;4.388;2022-11-15T01:19:08;37.88;;;20.35;;
11471;SDS011;47430;50.808;4.388;2022-11-15T01:21:34;39.97;;;19.13;;
11471;SDS011;47430;50.808;4.388;2022-11-15T01:24:00;43.92;;;19.63;;
11471;SDS011;47430;50.808;4.388;2022-11-15T01:26:26;36.67;;;18.58;;
11471;SDS011;47430;50.808;4.388;2022-11-15T01:28:52;36.13;;;17.83;;
11471;SDS011;47430;50.808;4.388;2022-11-15T01:31:19;37.88;;;19.23;;
11471;SDS011;47430;50.808;4.388;2022-11-15T01:33:45;43.13;;;18.48;;
11471;SDS011;47430;50.808;4.388;2022-11-15T01:36:13;32.70;;;17.95;;
11471;SDS011;47430;50.808;4.388;2022-11-15T01:38:39;33.00;;;17.23;;
11471;SDS011;47430;50.808;4.388;2022-11-15T01:41:06;29.30;;;16.45;;
11471;SDS011;47430;50.808;4.388;2022-11-15T01:43:33;31.58;;;16.38;;
11471;SDS011;47430;50.808;4.388;2022-11-15T01:46:10;28.23;;;16.48;;
11471;SDS011;47430;50.808;4.388;2022-11-15T01:48:39;33.65;;;17.42;;
11471;SDS011;47430;50.808;4.388;2022-11-15T01:51:06;27.45;;;14.88;;
11471;SDS011;47430;50.808;4.388;2022-11-15T01:53:35;30.38;;;14.88;;
11471;SDS011;47430;50.808;4.388;2022-11-15T01:56:03;29.08;;;15.02;;
11471;SDS011;47430;50.808;4.388;2022-11-15T01:58:31;26.23;;;13.43;;
11471;SDS011;47430;50.808;4.388;2022-11-15T02:00:58;27.35;;;14.02;;
11471;SDS011;47430;50.808;4.388;2022-11-15T02:03:27;23.33;;;13.20;;
11471;SDS011;47430;50.808;4.388;2022-11-15T02:05:57;22.13;;;13.65;;
11471;SDS011;47430;50.808;4.388;2022-11-15T02:08:23;29.67;;;13.45;;
11471;SDS011;47430;50.808;4.388;2022-11-15T02:10:49;21.17;;;12.57;;
11471;SDS011;47430;50.808;4.388;2022-11-15T02:13:15;20.80;;;12.13;;
11471;SDS011;47430;50.808;4.388;2022-11-15T02:15:55;20.17;;;11.80;;
11471;SDS011;47430;50.808;4.388;2022-11-15T02:18:26;24.23;;;12.38;;
11471;SDS011;47430;50.808;4.388;2022-11-15T02:20:58;21.85;;;12.70;;
11471;SDS011;47430;50.808;4.388;2022-11-15T02:31:10;23.00;;;12.30;;
11471;SDS011;47430;50.808;4.388;2022-11-15T02:33:41;26.83;;;12.55;;
11471;SDS011;47430;50.808;4.388;2022-11-15T02:36:14;21.92;;;12.98;;
11471;SDS011;47430;50.808;4.388;2022-11-15T02:41:10;23.40;;;13.20;;
11471;SDS011;47430;50.808;4.388;2022-11-15T02:49:19;22.85;;;13.18;;
11471;SDS011;47430;50.808;4.388;2022-11-15T02:51:46;20.65;;;11.65;;
11471;SDS011;47430;50.808;4.388;2022-11-15T02:54:24;22.00;;;11.63;;
11471;SDS011;47430;50.808;4.388;2022-11-15T02:56:51;18.50;;;11.77;;
11471;SDS011;47430;50.808;4.388;2022-11-15T03:01:54;18.38;;;10.30;;
11471;SDS011;47430;50.808;4.388;2022-11-15T03:07:03;18.65;;;10.70;;
11471;SDS011;47430;50.808;4.388;2022-11-15T03:09:35;16.73;;;9.88;;
11471;SDS011;47430;50.808;4.388;2022-11-15T03:12:07;19.98;;;9.70;;
11471;SDS011;47430;50.808;4.388;2022-11-15T03:14:37;20.63;;;10.38;;
11471;SDS011;47430;50.808;4.388;2022-11-15T03:22:04;16.23;;;8.32;;
11471;SDS011;47430;50.808;4.388;2022-11-15T03:24:32;14.40;;;8.25;;
11471;SDS011;47430;50.808;4.388;2022-11-15T03:27:00;16.60;;;7.47;;
11471;SDS011;47430;50.808;4.388;2022-11-15T03:29:28;20.08;;;8.10;;
11471;SDS011;47430;50.808;4.388;2022-11-15T03:32:00;14.88;;;7.68;;
11471;SDS011;47430;50.808;4.388;2022-11-15T03:37:10;13.60;;;7.22;;
11471;SDS011;47430;50.808;4.388;2022-11-15T03:39:38;16.92;;;6.78;;
11471;SDS011;47430;50.808;4.388;2022-11-15T03:47:12;11.07;;;5.93;;
11471;SDS011;47430;50.808;4.388;2022-11-15T03:49:46;17.02;;;6.55;;
11471;SDS011;47430;50.808;4.388;2022-11-15T03:52:17;10.68;;;6.28;;
11471;SDS011;47430;50.808;4.388;2022-11-15T03:54:51;13.27;;;7.15;;
11471;SDS011;47430;50.808;4.388;2022-11-15T03:57:18;14.85;;;6.25;;
11471;SDS011;47430;50.808;4.388;2022-11-15T03:59:44;12.07;;;6.68;;
11471;SDS011;47430;50.808;4.388;2022-11-15T04:02:11;9.88;;;5.60;;
11471;SDS011;47430;50.808;4.388;2022-11-15T04:04:37;9.45;;;6.10;;
11471;SDS011;47430;50.808;4.388;2022-11-15T04:07:03;12.75;;;6.63;;
11471;SDS011;47430;50.808;4.388;2022-11-15T04:09:29;10.50;;;6.13;;
11471;SDS011;47430;50.808;4.388;2022-11-15T04:11:55;14.30;;;6.50;;
11471;SDS011;47430;50.808;4.388;2022-11-15T04:14:22;13.02;;;6.38;;
11471;SDS011;47430;50.808;4.388;2022-11-15T04:16:48;12.98;;;5.85;;
11471;SDS011;47430;50.808;4.388;2022-11-15T04:19:14;13.07;;;6.47;;
11471;SDS011;47430;50.808;4.388;2022-11-15T04:21:58;10.68;;;5.53;;
11471;SDS011;47430;50.808;4.388;2022-11-15T04:24:43;12.77;;;7.15;;
11471;SDS011;47430;50.808;4.388;2022-11-15T04:27:09;9.95;;;6.13;;
11471;SDS011;47430;50.808;4.388;2022-11-15T04:29:38;19.15;;;6.07;;
11471;SDS011;47430;50.808;4.388;2022-11-15T04:32:05;10.73;;;5.45;;
11471;SDS011;47430;50.808;4.388;2022-11-15T04:34:34;11.00;;;5.82;;
11471;SDS011;47430;50.808;4.388;2022-11-15T04:37:00;11.23;;;5.38;;
11471;SDS011;47430;50.808;4.388;2022-11-15T04:39:41;7.63;;;5.35;;
11471;SDS011;47430;50.808;4.388;2022-11-15T04:42:07;9.00;;;5.43;;
11471;SDS011;47430;50.808;4.388;2022-11-15T04:44:33;10.07;;;5.72;;
11471;SDS011;47430;50.808;4.388;2022-11-15T04:46:59;11.73;;;5.85;;
11471;SDS011;47430;50.808;4.388;2022-11-15T04:49:26;15.32;;;5.53;;
11471;SDS011;47430;50.808;4.388;2022-11-15T04:51:52;8.68;;;5.07;;
11471;SDS011;47430;50.808;4.388;2022-11-15T04:54:18;10.50;;;5.47;;
11471;SDS011;47430;50.808;4.388;2022-11-15T04:56:44;8.30;;;4.78;;
11471;SDS011;47430;50.808;4.388;2022-11-15T04:59:10;8.95;;;4.85;;
11471;SDS011;47430;50.808;4.388;2022-11-15T05:01:36;9.23;;;4.72;;
11471;SDS011;47430;50.808;4.388;2022-11-15T05:04:02;12.15;;;5.28;;
11471;SDS011;47430;50.808;4.388;2022-11-15T05:06:44;6.97;;;4.60;;
11471;SDS011;47430;50.808;4.388;2022-11-15T05:09:11;12.77;;;4.43;;
11471;SDS011;47430;50.808;4.388;2022-11-15T05:11:38;9.32;;;4.80;;
11471;SDS011;47430;50.808;4.388;2022-11-15T05:14:05;10.02;;;5.10;;
11471;SDS011;47430;50.808;4.388;2022-11-15T05:16:31;8.60;;;4.80;;
11471;SDS011;47430;50.808;4.388;2022-11-15T05:18:57;8.43;;;4.53;;
11471;SDS011;47430;50.808;4.388;2022-11-15T05:21:23;8.20;;;4.50;;
11471;SDS011;47430;50.808;4.388;2022-11-15T05:23:49;7.13;;;4.30;;
11471;SDS011;47430;50.808;4.388;2022-11-15T05:26:16;11.43;;;4.30;;
11471;SDS011;47430;50.808;4.388;2022-11-15T05:28:42;8.40;;;4.32;;
11471;SDS011;47430;50.808;4.388;2022-11-15T05:31:15;7.20;;;4.43;;
11471;SDS011;47430;50.808;4.388;2022-11-15T05:33:42;7.70;;;4.07;;
11471;SDS011;47430;50.808;4.388;2022-11-15T05:36:14;12.50;;;4.22;;
11471;SDS011;47430;50.808;4.388;2022-11-15T05:38:43;6.95;;;3.65;;
11471;SDS011;47430;50.808;4.388;2022-11-15T05:41:09;9.48;;;4.10;;
11471;SDS011;47430;50.808;4.388;2022-11-15T05:43:36;12.38;;;4.47;;
11471;SDS011;47430;50.808;4.388;2022-11-15T05:46:04;11.65;;;4.50;;
11471;SDS011;47430;50.808;4.388;2022-11-15T05:48:31;7.22;;;4.00;;
11471;SDS011;47430;50.808;4.388;2022-11-15T05:50:58;10.88;;;4.57;;
11471;SDS011;47430;50.808;4.388;2022-11-15T05:53:25;11.40;;;4.00;;
11471;SDS011;47430;50.808;4.388;2022-11-15T05:55:51;7.70;;;4.25;;
11471;SDS011;47430;50.808;4.388;2022-11-15T05:58:18;4.45;;;3.63;;
11471;SDS011;47430;50.808;4.388;2022-11-15T06:00:49;7.88;;;4.07;;
11471;SDS011;47430;50.808;4.388;2022-11-15T06:03:16;9.05;;;4.40;;
11471;SDS011;47430;50.808;4.388;2022-11-15T06:05:42;8.02;;;4.22;;
11471;SDS011;47430;50.808;4.388;2022-11-15T06:08:09;5.33;;;4.23;;
11471;SDS011;47430;50.808;4.388;2022-11-15T06:10:35;7.85;;;4.13;;
11471;SDS011;47430;50.808;4.388;2022-11-15T06:13:02;10.48;;;4.95;;
11471;SDS011;47430;50.808;4.388;2022-11-15T06:15:28;7.80;;;4.20;;
11471;SDS011;47430;50.808;4.388;2022-11-15T06:17:57;8.48;;;4.35;;
11471;SDS011;47430;50.808;4.388;2022-11-15T06:20:25;7.63;;;3.33;;
11471;SDS011;47430;50.808;4.388;2022-11-15T06:22:55;8.32;;;3.60;;
11471;SDS011;47430;50.808;4.388;2022-11-15T06:25:21;6.93;;;4.65;;
11471;SDS011;47430;50.808;4.388;2022-11-15T06:27:51;9.25;;;3.83;;
11471;SDS011;47430;50.808;4.388;2022-11-15T06:30:17;7.57;;;4.40;;
11471;SDS011;47430;50.808;4.388;2022-11-15T06:32:43;8.48;;;4.47;;
11471;SDS011;47430;50.808;4.388;2022-11-15T06:35:09;5.90;;;4.25;;
11471;SDS011;47430;50.808;4.388;2022-11-15T06:37:35;9.30;;;4.38;;
11471;SDS011;47430;50.808;4.388;2022-11-15T06:40:02;11.93;;;4.20;;
11471;SDS011;47430;50.808;4.388;2022-11-15T06:42:28;7.80;;;4.38;;
11471;SDS011;47430;50.808;4.388;2022-11-15T06:44:54;11.82;;;4.20;;
11471;SDS011;47430;50.808;4.388;2022-11-15T06:47:23;7.55;;;3.47;;
11471;SDS011;47430;50.808;4.388;2022-11-15T06:49:50;5.63;;;4.18;;
11471;SDS011;47430;50.808;4.388;2022-11-15T06:52:16;8.77;;;4.40;;
11471;SDS011;47430;50.808;4.388;2022-11-15T06:54:47;7.28;;;3.40;;
11471;SDS011;47430;50.808;4.388;2022-11-15T06:57:13;7.30;;;3.92;;
11471;SDS011;47430;50.808;4.388;2022-11-15T06:59:39;8.88;;;4.40;;
11471;SDS011;47430;50.808;4.388;2022-11-15T07:02:05;8.18;;;4.00;;
11471;SDS011;47430;50.808;4.388;2022-11-15T07:04:31;6.15;;;3.75;;
11471;SDS011;47430;50.808;4.388;2022-11-15T07:06:57;11.00;;;4.22;;
11471;SDS011;47430;50.808;4.388;2022-11-15T07:09:23;7.88;;;4.28;;
11471;SDS011;47430;50.808;4.388;2022-11-15T07:11:50;7.10;;;3.60;;
11471;SDS011;47430;50.808;4.388;2022-11-15T07:14:16;7.37;;;3.93;;
11471;SDS011;47430;50.808;4.388;2022-11-15T07:16:42;8.60;;;3.77;;
11471;SDS011;47430;50.808;4.388;2022-11-15T07:19:08;7.55;;;3.83;;
11471;SDS011;47430;50.808;4.388;2022-11-15T07:21:34;7.20;;;4.00;;
11471;SDS011;47430;50.808;4.388;2022-11-15T07:24:01;7.47;;;3.90;;
11471;SDS011;47430;50.808;4.388;2022-11-15T07:26:27;11.53;;;4.70;;
11471;SDS011;47430;50.808;4.388;2022-11-15T07:28:53;8.63;;;4.17;;
11471;SDS011;47430;50.808;4.388;2022-11-15T07:31:19;8.20;;;5.05;;
11471;SDS011;47430;50.808;4.388;2022-11-15T07:33:45;7.33;;;4.13;;
11471;SDS011;47430;50.808;4.388;2022-11-15T07:36:12;5.00;;;3.90;;
11471;SDS011;47430;50.808;4.388;2022-11-15T07:38:38;6.63;;;3.97;;
11471;SDS011;47430;50.808;4.388;2022-11-15T07:41:05;5.97;;;4.13;;
11471;SDS011;47430;50.808;4.388;2022-11-15T07:43:31;7.53;;;4.77;;
11471;SDS011;47430;50.808;4.388;2022-11-15T07:45:59;7.32;;;3.92;;
11471;SDS011;47430;50.808;4.388;2022-11-15T07:48:29;6.20;;;3.83;;
11471;SDS011;47430;50.808;4.388;2022-11-15T07:50:56;11.18;;;4.25;;
11471;SDS011;47430;50.808;4.388;2022-11-15T07:53:22;6.20;;;3.70;;
11471;SDS011;47430;50.808;4.388;2022-11-15T07:55:48;11.80;;;3.60;;
11471;SDS011;47430;50.808;4.388;2022-11-15T07:58:15;5.03;;;3.47;;
11471;SDS011;47430;50.808;4.388;2022-11-15T08:00:43;15.20;;;4.30;;
11471;SDS011;47430;50.808;4.388;2022-11-15T08:03:10;8.98;;;3.95;;
11471;SDS011;47430;50.808;4.388;2022-11-15T08:05:37;8.38;;;3.75;;
11471;SDS011;47430;50.808;4.388;2022-11-15T08:08:04;9.30;;;3.97;;
11471;SDS011;47430;50.808;4.388;2022-11-15T08:10:30;6.93;;;3.80;;
11471;SDS011;47430;50.808;4.388;2022-11-15T08:13:00;13.43;;;4.32;;
11471;SDS011;47430;50.808;4.388;2022-11-15T08:15:27;8.05;;;3.20;;
11471;SDS011;47430;50.808;4.388;2022-11-15T08:17:56;7.00;;;3.03;;
11471;SDS011;47430;50.808;4.388;2022-11-15T08:20:23;7.13;;;3.00;;
11471;SDS011;47430;50.808;4.388;2022-11-15T08:22:49;5.20;;;3.50;;
11471;SDS011;47430;50.808;4.388;2022-11-15T08:25:19;4.40;;;2.80;;
11471;SDS011;47430;50.808;4.388;2022-11-15T08:27:47;6.68;;;2.95;;
11471;SDS011;47430;50.808;4.388;2022-11-15T08:30:16;4.60;;;2.35;;
11471;SDS011;47430;50.808;4.388;2022-11-15T08:32:43;3.55;;;2.40;;
11471;SDS011;47430;50.808;4.388;2022-11-15T08:35:09;10.00;;;2.60;;
11471;SDS011;47430;50.808;4.388;2022-11-15T08:37:35;5.65;;;2.85;;
11471;SDS011;47430;50.808;4.388;2022-11-15T08:40:02;6.03;;;2.35;;
11471;SDS011;47430;50.808;4.388;2022-11-15T08:42:28;5.10;;;2.50;;
11471;SDS011;47430;50.808;4.388;2022-11-15T08:44:54;3.85;;;2.00;;
11471;SDS011;47430;50.808;4.388;2022-11-15T08:47:20;4.18;;;2.35;;
11471;SDS011;47430;50.808;4.388;2022-11-15T08:49:46;4.07;;;2.20;;
11471;SDS011;47430;50.808;4.388;2022-11-15T08:52:13;3.50;;;2.45;;
11471;SDS011;47430;50.808;4.388;2022-11-15T08:54:39;5.78;;;2.20;;
11471;SDS011;47430;50.808;4.388;2022-11-15T08:57:05;5.32;;;2.40;;
11471;SDS011;47430;50.808;4.388;2022-11-15T08:59:31;9.27;;;2.08;;
11471;SDS011;47430;50.808;4.388;2022-11-15T09:01:58;8.13;;;2.38;;
11471;SDS011;47430;50.808;4.388;2022-11-15T09:04:24;5.85;;;2.20;;
11471;SDS011;47430;50.808;4.388;2022-11-15T09:06:50;10.18;;;2.40;;
11471;SDS011;47430;50.808;4.388;2022-11-15T09:09:18;8.20;;;2.63;;
11471;SDS011;47430;50.808;4.388;2022-11-15T09:11:45;4.85;;;2.35;;
11471;SDS011;47430;50.808;4.388;2022-11-15T09:14:11;9.52;;;2.25;;
11471;SDS011;47430;50.808;4.388;2022-11-15T09:16:37;7.35;;;3.72;;
11471;SDS011;47430;50.808;4.388;2022-11-15T09:19:04;5.55;;;2.42;;
11471;SDS011;47430;50.808;4.388;2022-11-15T09:21:33;4.57;;;2.33;;
11471;SDS011;47430;50.808;4.388;2022-11-15T09:23:59;3.58;;;1.77;;
11471;SDS011;47430;50.808;4.388;2022-11-15T09:26:25;5.55;;;2.28;;
11471;SDS011;47430;50.808;4.388;2022-11-15T09:28:51;5.22;;;2.00;;
11471;SDS011;47430;50.808;4.388;2022-11-15T09:31:18;6.72;;;2.05;;
11471;SDS011;47430;50.808;4.388;2022-11-15T09:33:45;6.72;;;2.00;;
11471;SDS011;47430;50.808;4.388;2022-11-15T09:36:11;5.20;;;1.92;;
11471;SDS011;47430;50.808;4.388;2022-11-15T09:38:37;7.93;;;2.15;;
11471;SDS011;47430;50.808;4.388;2022-11-15T09:51:09;6.28;;;2.25;;
11471;SDS011;47430;50.808;4.388;2022-11-15T09:56:26;3.50;;;1.75;;
11471;SDS011;47430;50.808;4.388;2022-11-15T10:01:48;10.40;;;1.92;;
11471;SDS011;47430;50.808;4.388;2022-11-15T10:04:15;5.32;;;2.13;;
11471;SDS011;47430;50.808;4.388;2022-11-15T10:06:43;11.15;;;1.70;;
11471;SDS011;47430;50.808;4.388;2022-11-15T10:11:36;12.18;;;2.05;;
11471;SDS011;47430;50.808;4.388;2022-11-15T10:14:10;4.85;;;1.77;;
11471;SDS011;47430;50.808;4.388;2022-11-15T10:21:38;7.03;;;1.60;;
11471;SDS011;47430;50.808;4.388;2022-11-15T10:24:11;5.40;;;1.92;;
11471;SDS011;47430;50.808;4.388;2022-11-15T10:26:37;4.47;;;1.42;;
11471;SDS011;47430;50.808;4.388;2022-11-15T10:29:03;3.63;;;1.48;;
11471;SDS011;47430;50.808;4.388;2022-11-15T10:31:30;7.03;;;2.03;;
11471;SDS011;47430;50.808;4.388;2022-11-15T10:34:18;11.15;;;1.83;;
11471;SDS011;47430;50.808;4.388;2022-11-15T10:36:46;6.30;;;1.63;;
11471;SDS011;47430;50.808;4.388;2022-11-15T10:39:19;4.97;;;1.90;;
11471;SDS011;47430;50.808;4.388;2022-11-15T10:41:45;7.13;;;1.63;;
11471;SDS011;47430;50.808;4.388;2022-11-15T10:46:38;4.15;;;1.48;;
11471;SDS011;47430;50.808;4.388;2022-11-15T10:49:15;4.55;;;2.28;;
11471;SDS011;47430;50.808;4.388;2022-11-15T10:51:44;8.75;;;1.77;;
11471;SDS011;47430;50.808;4.388;2022-11-15T10:54:10;7.35;;;1.58;;
11471;SDS011;47430;50.808;4.388;2022-11-15T10:56:38;9.50;;;3.45;;
11471;SDS011;47430;50.808;4.388;2022-11-15T10:59:04;6.75;;;1.40;;
11471;SDS011;47430;50.808;4.388;2022-11-15T11:01:31;6.97;;;1.67;;
11471;SDS011;47430;50.808;4.388;2022-11-15T11:04:11;9.45;;;1.73;;
11471;SDS011;47430;50.808;4.388;2022-11-15T11:06:50;4.75;;;1.50;;
11471;SDS011;47430;50.808;4.388;2022-11-15T11:11:58;7.32;;;1.85;;
11471;SDS011;47430;50.808;4.388;2022-11-15T11:21:57;4.85;;;2.00;;
11471;SDS011;47430;50.808;4.388;2022-11-15T11:39:54;6.65;;;1.88;;
11471;SDS011;47430;50.808;4.388;2022-11-15T11:45:19;7.15;;;1.85;;
11471;SDS011;47430;50.808;4.388;2022-11-15T11:47:48;3.83;;;1.48;;
11471;SDS011;47430;50.808;4.388;2022-11-15T11:50:23;4.18;;;1.70;;
11471;SDS011;47430;50.808;4.388;2022-11-15T11:52:57;5.53;;;1.40;;
11471;SDS011;47430;50.808;4.388;2022-11-15T11:55:26;4.80;;;1.60;;
11471;SDS011;47430;50.808;4.388;2022-11-15T11:58:02;5.88;;;2.08;;
11471;SDS011;47430;50.808;4.388;2022-11-15T12:00:28;6.88;;;1.60;;
11471;SDS011;47430;50.808;4.388;2022-11-15T12:03:08;6.78;;;3.05;;
11471;SDS011;47430;50.808;4.388;2022-11-15T12:05:36;2.53;;;1.20;;
11471;SDS011;47430;50.808;4.388;2022-11-15T12:10:46;6.30;;;1.52;;
11471;SDS011;47430;50.808;4.388;2022-11-15T12:13:19;2.70;;;1.45;;
11471;SDS011;47430;50.808;4.388;2022-11-15T12:15:52;6.13;;;1.88;;
11471;SDS011;47430;50.808;4.388;2022-11-15T12:18:19;4.07;;;1.40;;
11471;SDS011;47430;50.808;4.388;2022-11-15T12:21:05;1.48;;;1.20;;
11471;SDS011;47430;50.808;4.388;2022-11-15T12:23:44;2.35;;;1.20;;
11471;SDS011;47430;50.808;4.388;2022-11-15T12:26:15;2.40;;;1.13;;
11471;SDS011;47430;50.808;4.388;2022-11-15T12:31:14;8.15;;;1.30;;
11471;SDS011;47430;50.808;4.388;2022-11-15T12:33:45;3.13;;;1.33;;
11471;SDS011;47430;50.808;4.388;2022-11-15T12:41:16;3.25;;;1.85;;
11471;SDS011;47430;50.808;4.388;2022-11-15T12:43:43;8.75;;;1.85;;
11471;SDS011;47430;50.808;4.388;2022-11-15T12:46:20;2.92;;;1.42;;
11471;SDS011;47430;50.808;4.388;2022-11-15T12:48:48;2.78;;;1.20;;
11471;SDS011;47430;50.808;4.388;2022-11-15T12:51:15;3.20;;;1.30;;
11471;SDS011;47430;50.808;4.388;2022-11-15T12:53:41;2.22;;;1.23;;
11471;SDS011;47430;50.808;4.388;2022-11-15T12:58:43;3.13;;;1.52;;
11471;SDS011;47430;50.808;4.388;2022-11-15T13:01:10;4.38;;;1.55;;
11471;SDS011;47430;50.808;4.388;2022-11-15T13:06:48;5.60;;;1.40;;
11471;SDS011;47430;50.808;4.388;2022-11-15T13:14:48;9.93;;;1.80;;
11471;SDS011;47430;50.808;4.388;2022-11-15T13:17:34;4.55;;;1.90;;
11471;SDS011;47430;50.808;4.388;2022-11-15T13:25:40;4.45;;;2.47;;
11471;SDS011;47430;50.808;4.388;2022-11-15T13:33:25;3.03;;;1.50;;
11471;SDS011;47430;50.808;4.388;2022-11-15T13:36:04;3.10;;;1.42;;
11471;SDS011;47430;50.808;4.388;2022-11-15T13:38:32;4.30;;;1.52;;
11471;SDS011;47430;50.808;4.388;2022-11-15T13:41:10;1.52;;;1.20;;
11471;SDS011;47430;50.808;4.388;2022-11-15T13:43:37;5.93;;;1.75;;
11471;SDS011;47430;50.808;4.388;2022-11-15T13:46:45;5.15;;;1.48;;
11471;SDS011;47430;50.808;4.388;2022-11-15T13:49:02;5.03;;;1.90;;
11471;SDS011;47430;50.808;4.388;2022-11-15T13:51:48;2.75;;;1.48;;
11471;SDS011;47430;50.808;4.388;2022-11-15T13:54:17;2.63;;;1.90;;
11471;SDS011;47430;50.808;4.388;2022-11-15T13:56:49;3.38;;;1.90;;
11471;SDS011;47430;50.808;4.388;2022-11-15T13:59:27;6.07;;;1.70;;
11471;SDS011;47430;50.808;4.388;2022-11-15T14:01:57;1.52;;;1.30;;
11471;SDS011;47430;50.808;4.388;2022-11-15T14:04:25;4.47;;;1.45;;
11471;SDS011;47430;50.808;4.388;2022-11-15T14:06:52;4.25;;;1.30;;
11471;SDS011;47430;50.808;4.388;2022-11-15T14:12:00;6.63;;;1.40;;
11471;SDS011;47430;50.808;4.388;2022-11-15T14:14:27;4.38;;;1.60;;
11471;SDS011;47430;50.808;4.388;2022-11-15T14:17:00;2.65;;;1.55;;
11471;SDS011;47430;50.808;4.388;2022-11-15T14:22:08;5.10;;;1.60;;
11471;SDS011;47430;50.808;4.388;2022-11-15T14:24:34;4.65;;;1.70;;
11471;SDS011;47430;50.808;4.388;2022-11-15T14:27:20;2.05;;;1.50;;
11471;SDS011;47430;50.808;4.388;2022-11-15T14:29:47;3.05;;;1.90;;
11471;SDS011;47430;50.808;4.388;2022-11-15T14:34:39;3.33;;;1.90;;
11471;SDS011;47430;50.808;4.388;2022-11-15T14:37:08;2.83;;;1.70;;
11471;SDS011;47430;50.808;4.388;2022-11-15T14:39:36;1.83;;;1.63;;
11471;SDS011;47430;50.808;4.388;2022-11-15T14:42:03;4.05;;;1.83;;
11471;SDS011;47430;50.808;4.388;2022-11-15T14:44:29;2.53;;;1.85;;
11471;SDS011;47430;50.808;4.388;2022-11-15T14:46:55;5.82;;;1.58;;
11471;SDS011;47430;50.808;4.388;2022-11-15T14:49:21;3.72;;;2.88;;
11471;SDS011;47430;50.808;4.388;2022-11-15T14:51:47;2.95;;;1.90;;
11471;SDS011;47430;50.808;4.388;2022-11-15T14:54:13;3.55;;;1.70;;
11471;SDS011;47430;50.808;4.388;2022-11-15T14:56:39;2.20;;;1.70;;
11471;SDS011;47430;50.808;4.388;2022-11-15T14:59:06;2.78;;;2.28;;
11471;SDS011;47430;50.808;4.388;2022-11-15T15:01:33;4.97;;;1.73;;
11471;SDS011;47430;50.808;4.388;2022-11-15T15:03:59;4.25;;;1.90;;
11471;SDS011;47430;50.808;4.388;2022-11-15T15:06:25;1.63;;;1.50;;
11471;SDS011;47430;50.808;4.388;2022-11-15T15:08:51;2.75;;;1.63;;
11471;SDS011;47430;50.808;4.388;2022-11-15T15:11:21;2.22;;;1.90;;
11471;SDS011;47430;50.808;4.388;2022-11-15T15:13:48;2.63;;;1.92;;
11471;SDS011;47430;50.808;4.388;2022-11-15T15:16:14;5.70;;;1.60;;
11471;SDS011;47430;50.808;4.388;2022-11-15T15:18:40;4.45;;;1.83;;
11471;SDS011;47430;50.808;4.388;2022-11-15T15:21:28;2.13;;;1.48;;
11471;SDS011;47430;50.808;4.388;2022-11-15T15:23:53;3.80;;;1.60;;
11471;SDS011;47430;50.808;4.388;2022-11-15T15:26:20;4.07;;;2.03;;
11471;SDS011;47430;50.808;4.388;2022-11-15T15:28:46;2.10;;;1.90;;
11471;SDS011;47430;50.808;4.388;2022-11-15T15:31:14;2.53;;;1.60;;
11471;SDS011;47430;50.808;4.388;2022-11-15T15:33:43;3.78;;;1.98;;
11471;SDS011;47430;50.808;4.388;2022-11-15T15:36:13;6.13;;;2.10;;
11471;SDS011;47430;50.808;4.388;2022-11-15T15:38:40;2.05;;;1.42;;
11471;SDS011;47430;50.808;4.388;2022-11-15T15:41:11;2.15;;;1.73;;
11471;SDS011;47430;50.808;4.388;2022-11-15T15:43:38;3.70;;;1.98;;
11471;SDS011;47430;50.808;4.388;2022-11-15T15:46:04;2.65;;;2.10;;
11471;SDS011;47430;50.808;4.388;2022-11-15T15:48:31;4.90;;;1.95;;
11471;SDS011;47430;50.808;4.388;2022-11-15T15:50:58;3.97;;;2.25;;
11471;SDS011;47430;50.808;4.388;2022-11-15T15:53:25;4.45;;;2.70;;
11471;SDS011;47430;50.808;4.388;2022-11-15T15:55:51;3.53;;;1.90;;
11471;SDS011;47430;50.808;4.388;2022-11-15T15:58:17;3.05;;;2.10;;
11471;SDS011;47430;50.808;4.388;2022-11-15T16:00:43;3.42;;;1.85;;
11471;SDS011;47430;50.808;4.388;2022-11-15T16:03:09;8.98;;;3.20;;
11471;SDS011;47430;50.808;4.388;2022-11-15T16:05:35;2.58;;;2.25;;
11471;SDS011;47430;50.808;4.388;2022-11-15T16:08:02;3.92;;;2.45;;
11471;SDS011;47430;50.808;4.388;2022-11-15T16:10:29;4.55;;;2.10;;
11471;SDS011;47430;50.808;4.388;2022-11-15T16:12:56;3.42;;;2.10;;
11471;SDS011;47430;50.808;4.388;2022-11-15T16:15:23;4.18;;;2.28;;
11471;SDS011;47430;50.808;4.388;2022-11-15T16:17:51;4.18;;;2.28;;
11471;SDS011;47430;50.808;4.388;2022-11-15T16:20:23;2.55;;;2.13;;
11471;SDS011;47430;50.808;4.388;2022-11-15T16:22:49;2.88;;;2.35;;
11471;SDS011;47430;50.808;4.388;2022-11-15T16:25:16;7.15;;;2.10;;
11471;SDS011;47430;50.808;4.388;2022-11-15T16:27:42;5.30;;;2.28;;
11471;SDS011;47430;50.808;4.388;2022-11-15T16:30:20;2.85;;;2.17;;
11471;SDS011;47430;50.808;4.388;2022-11-15T16:32:46;3.40;;;2.25;;
11471;SDS011;47430;50.808;4.388;2022-11-15T16:35:13;3.42;;;1.90;;
11471;SDS011;47430;50.808;4.388;2022-11-15T16:37:40;5.10;;;2.17;;
11471;SDS011;47430;50.808;4.388;2022-11-15T16:42:38;3.72;;;2.30;;
11471;SDS011;47430;50.808;4.388;2022-11-15T16:45:10;4.13;;;2.20;;
11471;SDS011;47430;50.808;4.388;2022-11-15T16:47:36;2.83;;;1.92;;
11471;SDS011;47430;50.808;4.388;2022-11-15T16:50:03;2.20;;;1.98;;
11471;SDS011;47430;50.808;4.388;2022-11-15T16:52:29;3.63;;;2.22;;
11471;SDS011;47430;50.808;4.388;2022-11-15T16:54:55;3.25;;;2.10;;
11471;SDS011;47430;50.808;4.388;2022-11-15T16:57:21;5.53;;;2.13;;